• Join FlightAware (Why Join?)
  • Login
  • US Flag 
09:35AM EST


 

Airport Tracker/Info


-or-


 

Live Flight TrackerFlight Track Log ✈ SWA709 ✈ 30-Apr-2013 ✈ KAUS - KLAS

Flight Track Log - Related Links

Times and Time Zones

All times are in EDT time to prevent confusion due to time zone crossing. See the SWA709 flight status page for this flight to view local times or setup timezone preferences in your user account.

Time Position Orientation Groundspeed Altitude Reporting Facility
EDT Latitude Longitude Course Direction KTS MPH feet Rate Location/Type
07:23AM 30.1461 -97.7342 278° West 207 238 6,000  Level Houston Center
07:24AM 30.1922 -97.7861 316° Northwest 228 262 9,300 3,360 Climbing Houston Center
07:25AM 30.2550 -97.8778 308° West 317 365 12,900 3,480 Climbing Houston Center
07:26AM 30.2781 -97.9878 284° West 351 404 16,400 3,420 Climbing Houston Center
07:27AM 30.3033 -98.1031 284° West 367 422 19,900 3,000 Climbing Houston Center
07:28AM 30.4189 -98.0192 278° West  Level FlightAware Approximate
07:28AM 30.3272 -98.2097 285° West 385 443 22,500  Level Houston Center
07:29AM 30.3550 -98.3372 284° West 400 460 25,200 2,580 Climbing Houston Center
07:30AM 30.3842 -98.4725 284° West 423 487 27,800 2,880 Climbing Houston Center
07:31AM 30.4172 -98.6272 284° West 419 482 31,100 2,640 Climbing Houston Center
07:32AM 30.4456 -98.7600 284° West 419 482 33,200 1,980 Climbing Houston Center
07:33AM 30.4756 -98.8961 284° West 428 493 35,100 1,860 Climbing Houston Center
07:34AM 30.5042 -99.0303 284° West 426 490 37,000 1,560 Climbing Houston Center
07:35AM 30.5289 -99.1417 284° West 422 486 38,300 1,320 Climbing Houston Center
07:36AM 30.5569 -99.2714 284° West 417 480 39,800 780 Climbing Houston Center
07:37AM 30.5886 -99.4267 283° West 414 476 40,000 60 Climbing Houston Center
07:38AM 30.6158 -99.5556 284° West 414 476 40,000  Level Houston Center
07:39AM 30.6428 -99.6847 284° West 413 475 40,000  Level Houston Center
07:40AM 30.6672 -99.8125 283° West 408 470 40,000  Level Houston Center
07:41AM 30.6936 -99.9419 283° West 414 476 40,000  Level Houston Center
07:42AM 30.7211 -100.0744 284° West 420 483 40,000  Level Houston Center
07:43AM 30.7478 -100.2067 283° West 422 486 40,000  Level Houston Center
07:44AM 30.7744 -100.3406 283° West 429 494 40,000  Level Houston Center
07:45AM 30.8008 -100.4736 283° West 428 493 40,000  Level Houston Center
07:47AM 30.8272 -100.6067 283° West 427 491 40,000  Level Houston Center
07:48AM 30.8589 -100.7669 283° West 425 489 40,000  Level Houston Center
07:49AM 30.8847 -100.9011 283° West 427 491 40,000  Level Houston Center
07:50AM 30.9103 -101.0361 282° West 429 494 40,000  Level Houston Center
07:51AM 30.9372 -101.1711 283° West 430 495 40,000  Level Houston Center
07:52AM 30.9650 -101.3039 284° West 427 491 40,000  Level Houston Center
07:53AM 30.9944 -101.4547 283° West 428 493 40,000  Level Houston Center
07:54AM 31.0181 -101.5914 281° West 429 494 40,000  Level Houston Center
07:55AM 31.0442 -101.7269 283° West 429 494 40,000  Level Houston Center
07:56AM 31.0700 -101.8622 283° West 427 491 40,000  Level Houston Center
07:57AM 31.0958 -101.9997 282° West 431 496 40,000  Level Houston Center
07:58AM 31.1250 -102.1650 282° West 438 504 40,000  Level Albuquerque Center
07:59AM 31.1500 -102.3008 282° West 432 497 40,000  Level Albuquerque Center
08:00AM 31.1750 -102.4372 282° West 437 503 40,000  Level Albuquerque Center
08:01AM 31.1972 -102.5603 282° West 431 496 40,000  Level Albuquerque Center
08:02AM 31.2219 -102.6964 282° West 425 489 40,000  Level Albuquerque Center
08:03AM 31.2489 -102.8331 283° West 430 495 40,000  Level Albuquerque Center
08:04AM 31.3114 -102.9544 301° West 434 499 40,000  Level Albuquerque Center
08:05AM 31.3758 -103.0756 302° West 435 501 40,000  Level Albuquerque Center
08:06AM 31.4389 -103.1958 302° West 436 502 40,000  Level Albuquerque Center
08:07AM 31.5022 -103.3158 302° West 434 499 40,000  Level Albuquerque Center
08:08AM 31.5661 -103.4375 302° West 435 501 40,000  Level Albuquerque Center
08:09AM 31.6353 -103.5722 301° West 434 499 40,000  Level Albuquerque Center
08:10AM 31.6989 -103.6922 302° West 433 498 40,000  Level Albuquerque Center
08:11AM 31.7572 -103.8039 302° West 431 496 40,000  Level Albuquerque Center
08:12AM 31.8186 -103.9231 301° West 429 494 40,000  Level Albuquerque Center
08:13AM 31.8867 -104.0525 302° West 431 496 40,000  Level Albuquerque Center
08:14AM 31.9436 -104.1625 301° West 432 497 40,000  Level Albuquerque Center
08:15AM 32.0047 -104.2808 301° West 428 493 40,000  Level Albuquerque Center
08:16AM 32.0644 -104.3972 301° West 422 486 40,000  Level Albuquerque Center
08:17AM 32.1231 -104.5150 300° West 420 483 40,000  Level Albuquerque Center
08:18AM 32.1836 -104.6328 301° West 420 483 40,000  Level Albuquerque Center
08:19AM 32.2542 -104.7694 301° West 412 474 40,000  Level Albuquerque Center
08:20AM 32.3144 -104.8886 301° West 420 483 40,000  Level Albuquerque Center
08:21AM 32.3736 -105.0081 300° West 422 486 40,000  Level Albuquerque Center
08:22AM 32.4350 -105.1292 301° West 430 495 40,000  Level Albuquerque Center
08:23AM 32.4942 -105.2494 300° West 428 493 40,000  Level Albuquerque Center
08:24AM 32.5519 -105.3681 300° West 420 483 40,000  Level Albuquerque Center
08:25AM 32.6119 -105.4864 301° West 420 483 40,000  Level Albuquerque Center
08:26AM 32.6706 -105.6058 300° West 420 483 40,000  Level Albuquerque Center
08:27AM 32.7292 -105.7258 300° West 421 484 40,000  Level Albuquerque Center
08:28AM 32.7883 -105.8456 300° West 422 486 40,000  Level Albuquerque Center
08:29AM 32.8439 -105.9567 301° West 427 491 40,000  Level Albuquerque Center
08:30AM 32.9156 -106.1031 300° West 429 494 40,000  Level Albuquerque Center
08:31AM 32.9742 -106.2242 300° West 427 491 40,000  Level Albuquerque Center
08:32AM 33.0328 -106.3456 300° West 425 489 40,000  Level Albuquerque Center
08:33AM 33.0917 -106.4675 300° West 426 490 40,000  Level Albuquerque Center
08:34AM 33.1519 -106.5900 300° West 428 493 40,000  Level Albuquerque Center
08:35AM 33.2114 -106.7144 300° West 432 497 40,000  Level Albuquerque Center
08:36AM 33.2703 -106.8389 300° West 433 498 40,000  Level Albuquerque Center
08:37AM 33.3306 -106.9656 300° West 438 504 40,000  Level Albuquerque Center
08:38AM 33.3903 -107.0908 300° West 438 504 40,000  Level Albuquerque Center
08:39AM 33.4503 -107.2156 300° West 436 502 40,000  Level Albuquerque Center
08:40AM 33.5094 -107.3403 300° West 434 499 40,000  Level Albuquerque Center
08:41AM 33.5694 -107.4697 299° West 441 507 40,000  Level Albuquerque Center
08:42AM 33.6283 -107.5933 300° West 436 502 40,000  Level Albuquerque Center
08:43AM 33.6875 -107.7192 299° West 434 499 40,000  Level Albuquerque Center
08:44AM 33.7458 -107.8447 299° West 434 499 40,000  Level Albuquerque Center
08:45AM 33.8028 -107.9711 298° West 433 498 40,000  Level Albuquerque Center
08:46AM 33.8611 -108.0958 299° West 431 496 40,000  Level Albuquerque Center
08:47AM 33.9317 -108.2439 300° West 429 494 40,000  Level Albuquerque Center
08:48AM 33.9892 -108.3689 299° West 430 495 40,000  Level Albuquerque Center
08:49AM 34.0461 -108.4953 299° West 433 498 40,000  Level Albuquerque Center
08:50AM 34.1053 -108.6247 299° West 441 507 40,000  Level Albuquerque Center
08:51AM 34.1631 -108.7517 299° West 439 505 40,000  Level Albuquerque Center
08:52AM 34.2203 -108.8772 299° West 434 499 40,000  Level Albuquerque Center
08:53AM 34.2778 -109.0033 299° West 433 498 40,000  Level Albuquerque Center
08:54AM 34.3408 -109.1458 298° West 436 502 40,000  Level Albuquerque Center
08:55AM 34.3972 -109.2681 299° West 436 502 40,000  Level Albuquerque Center
08:56AM 34.4606 -109.4139 298° West 437 503 40,000  Level Albuquerque Center
08:57AM 34.5164 -109.5378 299° West 437 503 40,000  Level Albuquerque Center
08:58AM 34.5714 -109.6617 298° West 435 501 40,000  Level Albuquerque Center
08:59AM 34.6258 -109.7858 298° West 434 499 40,000  Level Albuquerque Center
09:00AM 34.6878 -109.9278 298° West 429 494 40,000  Level Albuquerque Center
09:01AM 34.7419 -110.0508 298° West 429 494 40,000  Level Albuquerque Center
09:02AM 34.7967 -110.1767 298° West 434 499 40,000  Level Albuquerque Center
09:03AM 34.8581 -110.3225 297° West 436 502 40,000  Level Albuquerque Center
09:04AM 34.8861 -110.4514 285° West 426 490 40,000  Level Albuquerque Center
09:05AM 34.9186 -110.5858 286° West 425 489 40,000  Level Albuquerque Center
09:06AM 34.9561 -110.7386 287° West 424 488 40,000  Level Albuquerque Center
09:07AM 34.9886 -110.8708 287° West 426 490 40,000  Level Albuquerque Center
09:08AM 35.0239 -111.0108 287° West 431 496 40,000  Level Albuquerque Center
09:09AM 35.0592 -111.1522 287° West 437 503 40,000  Level Albuquerque Center
09:10AM 35.0928 -111.2892 287° West 428 493 40,000  Level Albuquerque Center
09:11AM 35.1272 -111.4256 287° West 424 488 40,000  Level Albuquerque Center
09:12AM 35.1606 -111.5628 287° West 423 487 40,000  Level Albuquerque Center
09:13AM 35.1936 -111.6997 286° West 423 487 40,000  Level Albuquerque Center
09:14AM 35.2311 -111.8586 286° West 424 488 40,000  Level Albuquerque Center
09:15AM 35.2653 -111.9964 287° West 426 490 40,000  Level Albuquerque Center
09:16AM 35.2986 -112.1361 286° West 429 494 40,000  Level Albuquerque Center
09:17AM 35.3319 -112.2758 286° West 430 495 40,000  Level Albuquerque Center
09:19AM 35.3650 -112.4153 286° West 430 495 40,000  Level Albuquerque Center
09:20AM 35.3975 -112.5544 286° West 429 494 40,000  Level Albuquerque Center
09:21AM 35.4303 -112.6919 286° West 427 491 40,000 -180 Level Albuquerque Center
09:22AM 35.4633 -112.8414 285° West 424 488 39,700 -1,380 Descending Albuquerque Center
09:23AM 35.4942 -112.9789 285° West 424 488 37,300 -2,700 Descending Albuquerque Center
09:24AM 35.5281 -113.1183 287° West 410 472 34,300 -3,000 Descending Albuquerque Center
09:25AM 35.5603 -113.2586 286° West 425 489 31,300 -2,760 Descending Albuquerque Center
09:26AM 35.5919 -113.3981 286° West 428 493 28,800 -2,460 Descending Albuquerque Center
09:27AM 35.6269 -113.5589 285° West 410 472 25,900 -2,520 Descending Los Angeles Center
09:28AM 35.6456 -113.6908 280° West 396 456 23,300 -2,460 Descending Los Angeles Center
09:29AM 35.6639 -113.8178 280° West 384 442 20,900 -2,100 Descending Los Angeles Center
09:30AM 35.6808 -113.9400 280° West 368 423 19,000 -1,800 Descending Los Angeles Center
09:31AM 35.6969 -114.0553 280° West 347 399 17,300 -2,040 Descending Los Angeles Center
09:32AM 35.7089 -114.1486 279° West 343 395 15,500 -2,460 Descending Los Angeles Center
09:32AM 35.7161 -114.1900 282° West 347 399 14,800 -2,340 Descending Los Angeles Center
09:32AM 35.7278 -114.2508 283° West 351 404 13,600 -2,280 Descending Los Angeles Center
09:33AM 35.7314 -114.3044 275° West 339 390 12,500 -1,620 Descending Los Angeles Center
09:33AM 35.7422 -114.3628 283° West 336 387 12,000 -540 Descending Los Angeles Center
09:34AM 35.7694 -114.3953 316° Northwest 317 365 12,000  Level Los Angeles Center
09:34AM 35.8178 -114.4197 338° Northwest 303 349 12,000 -120 Level Los Angeles Center
09:35AM 35.8472 -114.4339 339° North 300 345 11,900 -720 Descending Los Angeles Center
09:35AM 35.8817 -114.4831 311° West 302 348 11,300 -1,020 Descending Los Angeles Center
09:36AM 35.9008 -114.5114 310° West 293 337 10,900 -1,020 Descending Los Angeles Center
09:36AM 35.9353 -114.5581 312° West 297 342 10,300 -1,020 Descending Los Angeles Center
09:37AM 35.9539 -114.5878 308° West 291 335 9,900 -1,140 Descending Los Angeles Center
09:37AM 35.9867 -114.6339 311° West 285 328 9,200 -1,080 Descending Los Angeles Center
09:38AM 36.0061 -114.6597 313° West 282 325 8,800 -720 Descending Los Angeles Center
09:39AM 36.0344 -114.7031 309° West 269 310 8,500 -1,380 Descending Los Angeles Center
09:39AM 36.0464 -114.7492 288° West 255 293 7,400 -1,620 Descending Los Angeles Center
09:40AM 36.0511 -114.7878 279° West 259 298 6,900 -1,200 Descending Los Angeles Center
09:40AM 36.0617 -114.8372 285° West 257 296 6,200 -1,200 Descending Los Angeles Center
09:41AM 36.0694 -114.8803 283° West 256 295 5,700 -1,080 Descending Los Angeles Center
09:41AM 36.0775 -114.9231 283° West 258 297 5,100 -1,200 Descending Los Angeles Center
09:41AM 36.0767 -114.9525 268° West 249 287 4,600 -1,200 Descending Los Angeles Center
09:42AM 36.0778 -115.0000 272° West 237 273 3,900 -1,080 Descending Los Angeles Center
09:43AM 36.0767 -115.0322 268° West 192 221 3,400 -780 Descending Los Angeles Center
09:43AM 36.0775 -115.0597 272° West 202 232 3,100 -720 Descending Los Angeles Center
09:44AM 36.0769 -115.0828 268° West 135 155 2,700 -780 Descending Los Angeles Center
09:44AM 36.0769 -115.1228 270° West 133 153 2,100 -660 Descending Los Angeles Center
09:46AM 36.0667 -115.1500 270° West  Level FlightAware Approximate
09:53AM 36.0801 -115.1523 270° West  Level Estimated